createdAt,value
2019-04-07T00:02:40.786Z,20.80
2019-04-07T00:05:44.788Z,20.40
2019-04-07T00:08:48.975Z,20.83
2019-04-07T00:11:53.616Z,19.40
2019-04-07T00:14:57.287Z,19.77
2019-04-07T00:18:01.335Z,19.57
2019-04-07T00:21:05.257Z,20.13
2019-04-07T00:24:09.240Z,20.70
2019-04-07T00:27:13.190Z,19.87
2019-04-07T00:30:16.937Z,19.23
2019-04-07T00:33:21.092Z,19.10
2019-04-07T00:36:24.674Z,19.00
2019-04-07T00:39:28.240Z,19.10
2019-04-07T00:42:32.621Z,19.07
2019-04-07T00:45:37.052Z,18.90
2019-04-07T00:48:40.915Z,19.50
2019-04-07T00:51:45.366Z,18.50
2019-04-07T00:54:49.571Z,19.17
2019-04-07T00:57:53.665Z,19.53
2019-04-07T01:00:57.299Z,18.77
2019-04-07T01:04:01.142Z,18.60
2019-04-07T01:07:05.081Z,18.77
2019-04-07T01:10:09.685Z,18.10
2019-04-07T01:13:14.399Z,18.00
2019-04-07T01:16:18.233Z,18.20
2019-04-07T01:19:22.655Z,18.47
2019-04-07T01:22:26.661Z,18.97
2019-04-07T01:25:31.425Z,18.43
2019-04-07T01:28:35.361Z,18.33
2019-04-07T01:31:39.554Z,18.10
2019-04-07T01:34:43.577Z,17.33
2019-04-07T01:37:47.760Z,18.40
2019-04-07T01:41:04.066Z,18.63
2019-04-07T01:44:24.394Z,17.87
2019-04-07T01:47:35.401Z,18.40
2019-04-07T01:50:47.377Z,17.93
2019-04-07T01:54:10.132Z,18.20
2019-04-07T01:57:36.415Z,17.77
2019-04-07T02:00:56.595Z,18.37
2019-04-07T02:04:22.470Z,17.17
2019-04-07T02:07:37.971Z,17.97
2019-04-07T02:10:55.945Z,17.87
2019-04-07T02:14:08.655Z,18.00
2019-04-07T02:17:23.805Z,17.33
2019-04-07T02:20:55.378Z,17.27
2019-04-07T02:24:09.426Z,17.33
2019-04-07T02:27:23.115Z,17.33
2019-04-07T02:30:37.524Z,17.53
2019-04-07T02:33:46.139Z,17.50
2019-04-07T02:37:15.356Z,17.17
2019-04-07T02:40:37.202Z,16.57
2019-04-07T02:43:51.314Z,17.27
2019-04-07T02:47:06.493Z,17.83
2019-04-07T02:50:33.355Z,16.93
2019-04-07T02:54:09.253Z,16.50
2019-04-07T02:57:24.594Z,16.77
2019-04-07T03:00:50.944Z,16.37
2019-04-07T03:04:12.434Z,16.13
2019-04-07T03:07:21.732Z,16.73
2019-04-07T03:10:44.448Z,16.60
2019-04-07T03:13:54.303Z,16.83
2019-04-07T03:17:29.751Z,16.90
2019-04-07T03:20:51.525Z,15.80
2019-04-07T03:24:11.223Z,16.30
2019-04-07T03:27:22.135Z,16.20
2019-04-07T03:30:59.063Z,15.60
2019-04-07T03:34:13.938Z,16.57
2019-04-07T03:37:43.397Z,15.57
2019-04-07T03:40:48.137Z,15.43
2019-04-07T03:44:03.872Z,16.30
2019-04-07T03:47:30.769Z,15.80
2019-04-07T03:50:56.991Z,15.97
2019-04-07T03:54:24.127Z,16.37
2019-04-07T03:57:39.028Z,15.90
2019-04-07T04:01:33.927Z,16.97
2019-04-07T04:05:00.879Z,14.53
2019-04-07T04:08:22.824Z,15.47
2019-04-07T04:11:36.763Z,14.27
2019-04-07T04:14:45.694Z,13.77
2019-04-07T04:17:49.858Z,14.17
2019-04-07T04:20:54.280Z,13.73
2019-04-07T04:23:57.897Z,13.90
2019-04-07T04:27:01.890Z,14.03
2019-04-07T04:30:07.170Z,13.70
2019-04-07T04:33:10.744Z,13.80
2019-04-07T04:36:14.318Z,12.83
2019-04-07T04:39:19.723Z,12.67
2019-04-07T04:42:23.193Z,12.67
2019-04-07T04:45:27.594Z,13.03
2019-04-07T04:48:32.225Z,12.43
2019-04-07T04:51:39.299Z,13.37
2019-04-07T04:54:42.148Z,12.87
2019-04-07T04:57:45.935Z,12.33
2019-04-07T05:00:50.686Z,13.03
2019-04-07T05:03:54.467Z,12.60
2019-04-07T05:06:58.155Z,13.40
2019-04-07T05:10:01.803Z,13.37
2019-04-07T05:13:05.377Z,13.00
2019-04-07T05:16:09.223Z,12.80
2019-04-07T05:19:13.423Z,13.20
2019-04-07T05:22:17.922Z,13.50
2019-04-07T05:25:21.623Z,13.50
2019-04-07T05:28:26.626Z,13.10
2019-04-07T05:31:30.731Z,13.87
2019-04-07T05:34:34.553Z,12.80
2019-04-07T05:37:38.438Z,12.97
2019-04-07T05:40:42.212Z,12.60
2019-04-07T05:43:47.021Z,13.13
2019-04-07T05:46:50.708Z,13.20
2019-04-07T05:49:57.352Z,13.47
2019-04-07T05:52:59.602Z,12.23
2019-04-07T05:56:03.192Z,12.93
2019-04-07T05:59:09.830Z,13.00
2019-04-07T06:02:12.336Z,12.63
2019-04-07T06:05:17.733Z,14.23
2019-04-07T06:08:29.323Z,13.07
2019-04-07T06:11:31.177Z,13.40
2019-04-07T06:14:33.358Z,13.30
2019-04-07T06:17:37.917Z,11.67
2019-04-07T06:20:44.072Z,13.17
2019-04-07T06:23:46.933Z,12.43
2019-04-07T06:26:50.804Z,13.23
2019-04-07T06:29:59.630Z,12.67
2019-04-07T06:33:00.654Z,27.73
2019-04-07T06:36:04.970Z,27.70
2019-04-07T06:39:09.496Z,27.90
2019-04-07T06:42:14.248Z,26.90
2019-04-07T06:45:22.782Z,27.30
2019-04-07T06:48:26.714Z,28.60
2019-04-07T06:51:54.465Z,27.27
2019-04-07T06:55:33.305Z,27.10
2019-04-07T06:59:15.593Z,27.00
2019-04-07T07:02:34.958Z,30.90
2019-04-07T07:06:03.671Z,27.93
2019-04-07T07:09:30.619Z,26.67
2019-04-07T07:13:01.944Z,26.13
2019-04-07T07:16:29.995Z,21.40
2019-04-07T07:19:41.220Z,19.70
2019-04-07T07:22:49.478Z,19.43
2019-04-07T07:25:53.254Z,18.53
2019-04-07T07:28:57.544Z,18.27
2019-04-07T07:32:03.768Z,16.83
2019-04-07T07:35:07.967Z,16.43
2019-04-07T07:38:12.624Z,16.23
2019-04-07T07:41:19.735Z,15.70
2019-04-07T07:44:22.298Z,15.97
2019-04-07T07:47:29.642Z,15.43
2019-04-07T07:50:34.722Z,15.77
2019-04-07T07:53:40.282Z,22.10
2019-04-07T07:56:48.682Z,32.97
2019-04-07T07:59:49.950Z,20.93
2019-04-07T08:02:54.686Z,18.20
2019-04-07T08:05:59.044Z,16.73
2019-04-07T08:09:11.990Z,17.10
2019-04-07T08:12:08.384Z,16.20
2019-04-07T08:15:12.690Z,16.63
2019-04-07T08:18:18.878Z,16.90
2019-04-07T08:21:22.574Z,90.60
2019-04-07T08:24:26.259Z,21.47
2019-04-07T08:27:31.182Z,18.50
2019-04-07T08:30:36.047Z,19.17
2019-04-07T08:33:40.065Z,20.43
2019-04-07T08:36:45.170Z,19.83
2019-04-07T08:39:49.699Z,18.80
2019-04-07T08:42:53.498Z,18.57
2019-04-07T08:45:57.962Z,21.60
2019-04-07T08:49:01.916Z,19.47
2019-04-07T08:52:09.659Z,18.53
2019-04-07T08:55:11.885Z,18.50
2019-04-07T08:58:24.955Z,16.90
2019-04-07T09:01:21.338Z,16.40
2019-04-07T09:04:26.521Z,15.90
2019-04-07T09:07:31.024Z,18.67
2019-04-07T09:10:42.987Z,16.83
2019-04-07T09:13:56.309Z,16.50
2019-04-07T09:17:29.328Z,15.73
2019-04-07T09:20:59.530Z,16.33
2019-04-07T09:24:10.126Z,14.80
2019-04-07T09:27:23.586Z,14.17
2019-04-07T09:30:42.201Z,14.20
2019-04-07T09:34:20.108Z,16.20
2019-04-07T09:37:32.294Z,12.43
2019-04-07T09:40:48.487Z,12.10
2019-04-07T09:44:14.607Z,13.10
2019-04-07T09:47:38.031Z,12.00
2019-04-07T09:50:51.646Z,12.80
2019-04-07T09:54:14.894Z,12.13
2019-04-07T09:57:39.794Z,12.40
2019-04-07T10:01:06.877Z,12.73
2019-04-07T10:04:29.764Z,11.00
2019-04-07T10:07:43.775Z,12.60
2019-04-07T10:11:05.693Z,13.03
2019-04-07T10:14:24.059Z,12.73
2019-04-07T10:17:56.510Z,12.37
2019-04-07T10:21:09.946Z,11.43
2019-04-07T10:24:23.589Z,11.17
2019-04-07T10:27:45.186Z,11.07
2019-04-07T10:31:06.362Z,10.33
2019-04-07T10:34:18.251Z,10.63
2019-04-07T10:37:37.952Z,11.37
2019-04-07T10:40:50.361Z,13.27
2019-04-07T10:44:00.030Z,11.77
2019-04-07T10:47:23.489Z,11.47
2019-04-07T10:50:37.900Z,10.93
2019-04-07T10:53:51.129Z,10.97
2019-04-07T10:57:12.874Z,10.37
2019-04-07T11:00:34.506Z,10.60
2019-04-07T11:04:01.726Z,11.00
2019-04-07T11:07:28.091Z,10.60
2019-04-07T11:10:54.324Z,10.37
2019-04-07T11:14:23.817Z,10.63
2019-04-07T11:17:50.318Z,10.77
2019-04-07T11:21:28.459Z,10.70
2019-04-07T11:24:49.941Z,10.10
2019-04-07T11:27:59.501Z,9.70
2019-04-07T11:31:34.281Z,10.33
2019-04-07T11:34:55.222Z,9.70
2019-04-07T11:38:15.011Z,9.53
2019-04-07T11:41:28.779Z,10.07
2019-04-07T11:45:04.974Z,9.37
2019-04-07T11:48:23.257Z,9.90
2019-04-07T11:51:35.819Z,9.40
2019-04-07T11:54:49.248Z,9.77
2019-04-07T11:58:17.519Z,9.70
2019-04-07T12:01:46.079Z,9.73
2019-04-07T12:05:09.890Z,9.83
2019-04-07T12:08:47.855Z,9.57
2019-04-07T12:12:05.907Z,8.90
2019-04-07T12:15:28.903Z,9.50
2019-04-07T12:18:40.725Z,9.50
2019-04-07T12:21:49.397Z,9.33
2019-04-07T12:25:05.440Z,9.20
2019-04-07T12:28:22.563Z,9.27
2019-04-07T12:31:45.179Z,9.30
2019-04-07T12:35:03.203Z,8.73
2019-04-07T12:38:20.911Z,9.27
2019-04-07T12:41:32.236Z,8.70
2019-04-07T12:44:55.465Z,9.23
2019-04-07T12:48:31.695Z,9.23
2019-04-07T12:51:56.095Z,8.80
2019-04-07T12:55:11.953Z,9.17
2019-04-07T12:58:44.009Z,8.70
2019-04-07T13:02:05.590Z,9.20
2019-04-07T13:05:24.811Z,8.73
2019-04-07T13:08:54.808Z,8.77
2019-04-07T13:12:14.083Z,9.33
2019-04-07T13:15:48.940Z,8.87
2019-04-07T13:19:10.201Z,8.70
2019-04-07T13:22:40.959Z,8.80
2019-04-07T13:25:55.066Z,9.03
2019-04-07T13:29:29.126Z,8.13
2019-04-07T13:32:43.575Z,8.60
2019-04-07T13:36:13.443Z,8.40
2019-04-07T13:39:41.519Z,7.93
2019-04-07T13:43:09.635Z,8.20
2019-04-07T13:46:38.947Z,8.20
2019-04-07T13:50:11.593Z,8.17
2019-04-07T13:53:41.050Z,8.20
2019-04-07T13:57:00.178Z,7.77
2019-04-07T14:00:29.336Z,8.40
2019-04-07T14:03:51.462Z,8.40
2019-04-07T14:07:06.723Z,8.10
2019-04-07T14:10:23.503Z,8.23
2019-04-07T14:13:37.950Z,7.80
2019-04-07T14:16:47.526Z,7.77
2019-04-07T14:20:29.236Z,8.30
2019-04-07T14:23:39.863Z,8.20
2019-04-07T14:26:59.361Z,7.70
2019-04-07T14:30:22.318Z,8.33
2019-04-07T14:33:44.533Z,8.00
2019-04-07T14:37:17.478Z,7.87
2019-04-07T14:40:30.142Z,7.73
2019-04-07T14:44:05.313Z,7.80
2019-04-07T14:47:34.568Z,8.30
2019-04-07T14:51:08.208Z,7.87
2019-04-07T14:54:23.169Z,7.63
2019-04-07T14:57:39.040Z,8.33
2019-04-07T15:01:03.469Z,8.70
2019-04-07T15:04:06.362Z,7.97
2019-04-07T15:07:22.106Z,7.87
2019-04-07T15:10:31.942Z,8.00
2019-04-07T15:13:36.435Z,8.20
2019-04-07T15:16:40.060Z,7.90
2019-04-07T15:19:44.222Z,8.07
2019-04-07T15:22:48.521Z,8.23
2019-04-07T15:25:53.094Z,7.90
2019-04-07T15:28:58.994Z,8.10
2019-04-07T15:32:03.237Z,7.80
2019-04-07T15:35:07.512Z,8.37
2019-04-07T15:38:12.425Z,7.90
2019-04-07T15:41:18.916Z,7.93
2019-04-07T15:44:22.834Z,8.23
2019-04-07T15:47:27.627Z,8.23
2019-04-07T15:50:31.520Z,7.90
2019-04-07T15:53:36.837Z,8.00
2019-04-07T15:56:41.283Z,8.07
2019-04-07T15:59:46.075Z,8.17
2019-04-07T16:02:52.145Z,7.67
2019-04-07T16:05:55.568Z,7.40
2019-04-07T16:09:01.036Z,7.20
2019-04-07T16:12:04.411Z,7.67
2019-04-07T16:15:08.328Z,7.80
2019-04-07T16:18:12.648Z,7.97
2019-04-07T16:21:16.352Z,7.73
2019-04-07T16:24:21.970Z,7.57
2019-04-07T16:27:26.047Z,7.57
2019-04-07T16:30:30.447Z,8.00
2019-04-07T16:33:35.241Z,7.63
2019-04-07T16:36:40.186Z,7.63
2019-04-07T16:39:44.604Z,7.90
2019-04-07T16:43:01.198Z,7.73
2019-04-07T16:45:54.728Z,7.83
2019-04-07T16:48:58.699Z,7.67
2019-04-07T16:52:03.573Z,7.90
2019-04-07T16:55:29.381Z,7.43
2019-04-07T16:58:36.544Z,7.77
2019-04-07T17:01:38.547Z,7.87
2019-04-07T17:04:43.068Z,7.30
2019-04-07T17:07:48.199Z,7.70
2019-04-07T17:10:52.689Z,7.60
2019-04-07T17:13:56.955Z,7.37
2019-04-07T17:17:00.587Z,7.40
2019-04-07T17:20:04.734Z,7.50
2019-04-07T17:23:08.657Z,7.70
2019-04-07T17:26:12.407Z,7.43
2019-04-07T17:29:19.077Z,7.67
2019-04-07T17:32:23.203Z,7.43
2019-04-07T17:35:27.107Z,7.40
2019-04-07T17:38:36.368Z,7.50
2019-04-07T17:41:39.865Z,7.47
2019-04-07T17:45:03.343Z,7.30
2019-04-07T17:48:25.610Z,7.00
2019-04-07T17:51:38.287Z,7.60
2019-04-07T17:55:13.778Z,7.13
2019-04-07T17:58:32.075Z,8.00
2019-04-07T18:02:07.255Z,7.37
2019-04-07T18:05:17.411Z,11.30
2019-04-07T18:08:43.505Z,11.30
2019-04-07T18:12:09.261Z,11.17
2019-04-07T18:15:30.276Z,35.63
2019-04-07T18:18:56.245Z,10.77
2019-04-07T18:22:20.484Z,11.30
2019-04-07T18:26:01.659Z,10.40
2019-04-07T18:29:20.078Z,56.67
2019-04-07T18:32:41.784Z,11.63
2019-04-07T18:36:09.163Z,15.83
2019-04-07T18:39:41.910Z,10.70
2019-04-07T18:42:55.665Z,11.50
2019-04-07T18:46:17.904Z,11.17
2019-04-07T18:49:37.589Z,11.93
2019-04-07T18:53:00.128Z,12.03
2019-04-07T18:56:32.455Z,13.43
2019-04-07T19:00:01.408Z,15.10
2019-04-07T19:03:29.687Z,13.33
2019-04-07T19:06:58.780Z,15.60
2019-04-07T19:10:19.867Z,41.23
2019-04-07T19:13:46.907Z,24.40
2019-04-07T19:17:08.837Z,25.10
2019-04-07T19:20:27.082Z,28.30
2019-04-07T19:23:50.815Z,26.63
2019-04-07T19:27:11.860Z,24.43
2019-04-07T19:30:29.337Z,25.87
2019-04-07T19:33:59.859Z,25.70
2019-04-07T19:37:15.548Z,25.13
2019-04-07T19:40:28.761Z,24.57
2019-04-07T19:43:48.290Z,23.90
2019-04-07T19:47:01.242Z,24.53
2019-04-07T19:50:23.344Z,21.97
2019-04-07T19:53:36.785Z,20.57
2019-04-07T19:56:54.872Z,19.23
2019-04-07T20:00:20.788Z,19.40
2019-04-07T20:03:40.533Z,20.67
2019-04-07T20:07:00.763Z,20.80
2019-04-07T20:10:39.428Z,19.83
2019-04-07T20:14:00.833Z,18.73
2019-04-07T20:17:38.879Z,18.90
2019-04-07T20:20:49.037Z,27.67
2019-04-07T20:24:17.668Z,13.53
2019-04-07T20:27:43.131Z,71.93
2019-04-07T20:31:05.737Z,47.77
2019-04-07T20:34:18.645Z,41.20
2019-04-07T20:37:30.228Z,37.53
2019-04-07T20:40:52.017Z,34.93
2019-04-07T20:44:14.364Z,33.37
2019-04-07T20:47:36.303Z,31.90
2019-04-07T20:50:48.498Z,31.60
2019-04-07T20:54:21.594Z,32.50
2019-04-07T20:58:11.598Z,31.43
2019-04-07T21:01:22.582Z,27.97
2019-04-07T21:04:37.467Z,29.57
2019-04-07T21:08:10.438Z,30.77
2019-04-07T21:11:39.315Z,26.20
2019-04-07T21:15:19.060Z,26.70
2019-04-07T21:18:19.730Z,24.80
2019-04-07T21:21:43.280Z,21.20
2019-04-07T21:24:55.257Z,16.97
2019-04-07T21:28:07.735Z,38.13
2019-04-07T21:31:19.012Z,30.50
2019-04-07T21:34:30.726Z,29.53
2019-04-07T21:38:00.677Z,27.70
2019-04-07T21:41:24.305Z,28.83
2019-04-07T21:44:35.810Z,27.97
2019-04-07T21:48:00.304Z,26.87
2019-04-07T21:51:19.407Z,25.27
2019-04-07T21:54:34.729Z,27.30
2019-04-07T21:57:54.909Z,26.40
2019-04-07T22:01:06.758Z,27.37
2019-04-07T22:04:21.062Z,23.93
2019-04-07T22:07:49.636Z,28.50
2019-04-07T22:10:53.708Z,25.50
2019-04-07T22:13:57.952Z,25.83
2019-04-07T22:17:02.839Z,23.50
2019-04-07T22:20:08.352Z,23.87
2019-04-07T22:23:12.559Z,22.57
2019-04-07T22:26:17.963Z,23.70
2019-04-07T22:29:22.393Z,23.70
2019-04-07T22:32:26.869Z,22.90
2019-04-07T22:35:30.439Z,21.90
2019-04-07T22:38:34.296Z,22.10
2019-04-07T22:41:41.034Z,22.10
2019-04-07T22:44:43.513Z,21.17
2019-04-07T22:47:51.544Z,21.00
2019-04-07T22:50:52.520Z,21.10
2019-04-07T22:53:57.730Z,20.67
2019-04-07T22:57:02.868Z,20.63
2019-04-07T23:00:10.886Z,20.07
2019-04-07T23:03:15.498Z,19.93
2019-04-07T23:06:19.138Z,18.97
2019-04-07T23:09:23.165Z,21.00
2019-04-07T23:12:27.118Z,19.07
2019-04-07T23:15:41.582Z,19.67
2019-04-07T23:18:36.143Z,18.80
2019-04-07T23:21:40.076Z,19.70
2019-04-07T23:24:43.667Z,18.47
2019-04-07T23:27:47.593Z,18.07
2019-04-07T23:30:51.405Z,18.63
2019-04-07T23:33:55.300Z,18.63
2019-04-07T23:36:59.736Z,18.17
2019-04-07T23:40:04.377Z,18.37
2019-04-07T23:43:08.823Z,18.07
2019-04-07T23:46:20.660Z,16.53
2019-04-07T23:49:19.107Z,16.50
2019-04-07T23:52:22.981Z,17.60
2019-04-07T23:55:27.497Z,17.10
2019-04-07T23:58:31.602Z,17.20
